PAPT

Puntilla Airport

Alaska, USA
METAR PAPT 270246Z 30004KT 25SM SCT080 BKN300 16/09 A2954 RMK NO SPECI LAST
Observed Flight Rules
May-27 @ 02:46 UTC (5 hours ago) Visual Flight Rules
Wind Visibility Clouds
300° at 4 knots 25 miles
  • Scattered at 8,000' AGL
  • Broken at 30,000' AGL
Temperatures Readings
Current 16°C / 61°F
Dewpoint 9°C / 48°F
Humidity 63%
Altimeter 29.54" Hg
Pressure 1000 hPa
Elevation 558
METAR PAPT 270246Z 30004KT 25SM SCT080 BKN300 16/09 A2954 RMK NO SPECI LAST
Observed Flight Rules
May-27 @ 02:46 UTC
(5 hours ago)
VFR
Wind Visibility
300° at 4 knots 25 miles
Clouds
  • Scattered at 8,000' AGL
  • Broken at 30,000' AGL
Temperature Dewpoint
16°C / 61°F 9°C / 48°F
Humidity Altimeter Pressure
63% 29.54" Hg 1000 hPa